BOE60M KGYY-KLGA
Flight info
| Callsign | BOE60M |
|---|---|
| Flight time | 1h 42m |
| Altitude | 39000 |
| Route | ELANR9 EMMLY ROD J152 TRAKK EWC ETG MIP4 |
| Aircraft | CL60/M-SBDE1E2E3FGHIJ1J4J5J7M3RWXYZ/LB1V1D1 |
Departure
| Time | 2026-05-05 18:11 |
|---|---|
| Airport | Gary/Chicago International Airport (KGYY) |
Arrival
| Time | 2026-05-05 19:53 |
|---|---|
| Airport | LaGuardia Airport (KLGA) |
| Time | Latitude | Longitude | Altitude | Speed | Heading |
|---|---|---|---|---|---|
| 2026-05-05 18:05 | 41.62215 | -87.41815 | 596 ft | 8 kts | 215° |
| 2026-05-05 18:05 | 41.62175 | -87.41853 | 596 ft | 8 kts | 214° |
| 2026-05-05 18:05 | 41.62146 | -87.41878 | 596 ft | 3 kts | 207° |
| 2026-05-05 18:05 | 41.62113 | -87.41869 | 596 ft | 7 kts | 133° |
| 2026-05-05 18:06 | 41.62072 | -87.41788 | 596 ft | 15 kts | 125° |
| 2026-05-05 18:06 | 41.62024 | -87.41694 | 596 ft | 21 kts | 123° |
| 2026-05-05 18:06 | 41.61894 | -87.41439 | 596 ft | 23 kts | 125° |
| 2026-05-05 18:06 | 41.61836 | -87.41328 | 596 ft | 15 kts | 124° |
| 2026-05-05 18:07 | 41.61772 | -87.41200 | 596 ft | 17 kts | 124° |
| 2026-05-05 18:07 | 41.61697 | -87.41052 | 596 ft | 20 kts | 124° |
| 2026-05-05 18:07 | 41.61612 | -87.40887 | 596 ft | 22 kts | 124° |
| 2026-05-05 18:07 | 41.61519 | -87.40705 | 596 ft | 24 kts | 124° |
| 2026-05-05 18:08 | 41.61420 | -87.40513 | 596 ft | 22 kts | 124° |
| 2026-05-05 18:08 | 41.61380 | -87.40431 | 596 ft | 11 kts | 125° |
| 2026-05-05 18:08 | 41.61331 | -87.40336 | 596 ft | 14 kts | 123° |
| 2026-05-05 18:08 | 41.61298 | -87.40274 | 596 ft | 3 kts | 135° |
| 2026-05-05 18:09 | 41.61269 | -87.40269 | 596 ft | 6 kts | 217° |
| 2026-05-05 18:09 | 41.61227 | -87.40318 | 596 ft | 7 kts | 221° |
| 2026-05-05 18:09 | 41.61212 | -87.40346 | 596 ft | 4 kts | 266° |
| 2026-05-05 18:09 | 41.61221 | -87.40377 | 596 ft | 4 kts | 313° |
| 2026-05-05 18:10 | 41.61234 | -87.40401 | 596 ft | 0 kts | 302° |
| 2026-05-05 18:10 | 41.61251 | -87.40436 | 596 ft | 15 kts | 304° |
| 2026-05-05 18:10 | 41.61467 | -87.40855 | 596 ft | 96 kts | 303° |
| 2026-05-05 18:10 | 41.61967 | -87.41847 | 643 ft | 155 kts | 306° |
| 2026-05-05 18:11 | 41.62576 | -87.43076 | 1304 ft | 164 kts | 304° |
| 2026-05-05 18:11 | 41.63174 | -87.44398 | 2105 ft | 172 kts | 302° |
| 2026-05-05 18:11 | 41.63812 | -87.45869 | 2703 ft | 194 kts | 302° |
| 2026-05-05 18:11 | 41.64549 | -87.47567 | 3132 ft | 228 kts | 301° |
| 2026-05-05 18:12 | 41.65381 | -87.49420 | 3920 ft | 242 kts | 302° |
| 2026-05-05 18:12 | 41.66287 | -87.51395 | 4656 ft | 250 kts | 302° |
| 2026-05-05 18:12 | 41.67194 | -87.53360 | 5357 ft | 251 kts | 300° |
| 2026-05-05 18:12 | 41.67703 | -87.55578 | 6068 ft | 254 kts | 272° |
| 2026-05-05 18:13 | 41.67240 | -87.57848 | 6781 ft | 262 kts | 240° |
| 2026-05-05 18:13 | 41.65889 | -87.59514 | 7503 ft | 273 kts | 210° |
| 2026-05-05 18:13 | 41.64082 | -87.60250 | 8212 ft | 281 kts | 188° |
| 2026-05-05 18:13 | 41.62117 | -87.60152 | 8925 ft | 285 kts | 180° |
| 2026-05-05 18:14 | 41.60142 | -87.59912 | 9637 ft | 286 kts | 180° |
| 2026-05-05 18:14 | 41.58178 | -87.59619 | 10348 ft | 287 kts | 180° |
| 2026-05-05 18:14 | 41.56169 | -87.59315 | 11046 ft | 301 kts | 181° |
| 2026-05-05 18:14 | 41.54004 | -87.58997 | 11771 ft | 325 kts | 181° |
| 2026-05-05 18:15 | 41.51697 | -87.58654 | 12472 ft | 347 kts | 181° |
| 2026-05-05 18:15 | 41.49214 | -87.58279 | 13187 ft | 365 kts | 181° |
| 2026-05-05 18:15 | 41.46651 | -87.57886 | 13900 ft | 374 kts | 181° |
| 2026-05-05 18:15 | 41.44093 | -87.57488 | 14599 ft | 376 kts | 181° |
| 2026-05-05 18:16 | 41.41502 | -87.57070 | 15302 ft | 379 kts | 180° |
| 2026-05-05 18:16 | 41.38875 | -87.56612 | 16012 ft | 382 kts | 180° |
| 2026-05-05 18:16 | 41.36258 | -87.56155 | 16714 ft | 385 kts | 180° |
| 2026-05-05 18:16 | 41.33584 | -87.55689 | 17426 ft | 388 kts | 180° |
| 2026-05-05 18:17 | 41.30897 | -87.55221 | 18136 ft | 391 kts | 180° |
| 2026-05-05 18:17 | 41.28210 | -87.54754 | 18838 ft | 394 kts | 180° |
| 2026-05-05 18:17 | 41.25465 | -87.54278 | 19546 ft | 400 kts | 180° |
| 2026-05-05 18:17 | 41.22712 | -87.53802 | 20251 ft | 406 kts | 181° |
| 2026-05-05 18:18 | 41.19883 | -87.53260 | 20965 ft | 414 kts | 178° |
| 2026-05-05 18:18 | 41.17035 | -87.52515 | 21672 ft | 420 kts | 177° |
| 2026-05-05 18:18 | 41.14169 | -87.51743 | 22379 ft | 423 kts | 178° |
| 2026-05-05 18:18 | 41.11292 | -87.50970 | 23083 ft | 425 kts | 178° |
| 2026-05-05 18:19 | 41.08413 | -87.50197 | 23784 ft | 425 kts | 178° |
| 2026-05-05 18:19 | 41.05537 | -87.49424 | 24485 ft | 425 kts | 178° |
| 2026-05-05 18:19 | 41.02652 | -87.48650 | 25189 ft | 424 kts | 178° |
| 2026-05-05 18:19 | 40.99751 | -87.47872 | 25899 ft | 423 kts | 179° |
| 2026-05-05 18:20 | 40.96890 | -87.47105 | 26601 ft | 421 kts | 179° |
| 2026-05-05 18:20 | 40.93998 | -87.46335 | 26979 ft | 428 kts | 179° |
| 2026-05-05 18:20 | 40.91072 | -87.45564 | 27084 ft | 440 kts | 178° |
| 2026-05-05 18:20 | 40.88020 | -87.44756 | 27253 ft | 450 kts | 178° |
| 2026-05-05 18:21 | 40.84960 | -87.43943 | 27570 ft | 455 kts | 178° |
| 2026-05-05 18:21 | 40.81830 | -87.43108 | 28018 ft | 456 kts | 178° |
| 2026-05-05 18:21 | 40.78733 | -87.42282 | 28544 ft | 455 kts | 178° |
| 2026-05-05 18:21 | 40.75659 | -87.41462 | 29105 ft | 453 kts | 178° |
| 2026-05-05 18:22 | 40.72581 | -87.40642 | 29676 ft | 451 kts | 179° |
| 2026-05-05 18:22 | 40.69506 | -87.39823 | 30243 ft | 449 kts | 179° |
| 2026-05-05 18:22 | 40.66479 | -87.39020 | 30713 ft | 449 kts | 179° |
| 2026-05-05 18:22 | 40.63408 | -87.38208 | 31118 ft | 450 kts | 179° |
| 2026-05-05 18:23 | 40.60335 | -87.37397 | 31472 ft | 453 kts | 179° |
| 2026-05-05 18:23 | 40.57258 | -87.36517 | 31811 ft | 461 kts | 176° |
| 2026-05-05 18:23 | 40.54153 | -87.35065 | 32165 ft | 477 kts | 166° |
| 2026-05-05 18:23 | 40.51208 | -87.32959 | 32512 ft | 492 kts | 156° |
| 2026-05-05 18:24 | 40.48476 | -87.30235 | 32850 ft | 505 kts | 147° |
| 2026-05-05 18:24 | 40.45982 | -87.26884 | 33185 ft | 517 kts | 137° |
| 2026-05-05 18:24 | 40.43840 | -87.23008 | 33524 ft | 527 kts | 127° |
| 2026-05-05 18:24 | 40.42133 | -87.18749 | 33870 ft | 534 kts | 117° |
| 2026-05-05 18:25 | 40.40878 | -87.14143 | 34210 ft | 538 kts | 107° |
| 2026-05-05 18:25 | 40.40316 | -87.10928 | 34442 ft | 540 kts | 100° |
| 2026-05-05 18:25 | 40.39897 | -87.04433 | 34947 ft | 538 kts | 87° |
| 2026-05-05 18:25 | 40.40137 | -86.99566 | 35301 ft | 536 kts | 81° |
| 2026-05-05 18:26 | 40.40469 | -86.94700 | 35657 ft | 536 kts | 82° |
| 2026-05-05 18:26 | 40.40760 | -86.89817 | 36022 ft | 537 kts | 82° |
| 2026-05-05 18:26 | 40.41010 | -86.84908 | 36384 ft | 537 kts | 83° |
| 2026-05-05 18:26 | 40.41215 | -86.80028 | 36733 ft | 537 kts | 83° |
| 2026-05-05 18:27 | 40.41378 | -86.75163 | 37071 ft | 537 kts | 84° |
| 2026-05-05 18:27 | 40.41499 | -86.70272 | 37415 ft | 536 kts | 84° |
| 2026-05-05 18:27 | 40.41577 | -86.65334 | 37748 ft | 536 kts | 85° |
| 2026-05-05 18:27 | 40.41613 | -86.60465 | 38052 ft | 537 kts | 85° |
| 2026-05-05 18:28 | 40.41559 | -86.50661 | 38624 ft | 537 kts | 86° |
| 2026-05-05 18:28 | 40.41470 | -86.45776 | 38890 ft | 538 kts | 87° |
| 2026-05-05 18:28 | 40.41340 | -86.40849 | 38935 ft | 544 kts | 88° |
| 2026-05-05 18:29 | 40.40928 | -86.30821 | 38945 ft | 555 kts | 89° |
| 2026-05-05 18:29 | 40.40478 | -86.20634 | 38940 ft | 559 kts | 90° |
| 2026-05-05 18:30 | 40.40021 | -86.10500 | 38938 ft | 558 kts | 89° |
| 2026-05-05 18:30 | 40.39554 | -86.00349 | 38935 ft | 556 kts | 89° |
| 2026-05-05 18:31 | 40.39081 | -85.90286 | 38937 ft | 554 kts | 89° |
| 2026-05-05 18:31 | 40.38600 | -85.80241 | 38937 ft | 554 kts | 89° |
| 2026-05-05 18:32 | 40.38110 | -85.70168 | 38938 ft | 553 kts | 90° |
| 2026-05-05 18:32 | 40.37611 | -85.60093 | 38939 ft | 553 kts | 90° |
| 2026-05-05 18:33 | 40.37102 | -85.50008 | 38937 ft | 553 kts | 90° |
| 2026-05-05 18:33 | 40.36586 | -85.39948 | 38938 ft | 553 kts | 90° |
| 2026-05-05 18:34 | 40.36060 | -85.29858 | 38937 ft | 552 kts | 91° |
| 2026-05-05 18:34 | 40.35528 | -85.19846 | 38938 ft | 552 kts | 91° |
| 2026-05-05 18:35 | 40.34986 | -85.09804 | 38933 ft | 552 kts | 91° |
| 2026-05-05 18:35 | 40.34438 | -84.99818 | 38926 ft | 551 kts | 91° |
| 2026-05-05 18:36 | 40.33879 | -84.89783 | 38923 ft | 551 kts | 91° |
| 2026-05-05 18:36 | 40.33313 | -84.79776 | 38923 ft | 550 kts | 91° |
| 2026-05-05 18:37 | 40.32737 | -84.69772 | 38925 ft | 550 kts | 91° |
| 2026-05-05 18:37 | 40.32156 | -84.59801 | 38924 ft | 549 kts | 92° |
| 2026-05-05 18:38 | 40.31565 | -84.49812 | 38923 ft | 549 kts | 92° |
| 2026-05-05 18:38 | 40.30968 | -84.39863 | 38926 ft | 549 kts | 92° |
| 2026-05-05 18:39 | 40.30360 | -84.29900 | 38923 ft | 548 kts | 92° |
| 2026-05-05 18:39 | 40.29746 | -84.19961 | 38925 ft | 547 kts | 92° |
| 2026-05-05 18:40 | 40.29125 | -84.10042 | 38924 ft | 548 kts | 92° |
| 2026-05-05 18:40 | 40.28855 | -84.00153 | 38922 ft | 544 kts | 84° |
| 2026-05-05 18:41 | 40.29136 | -83.90240 | 38922 ft | 544 kts | 84° |
| 2026-05-05 18:41 | 40.29400 | -83.80351 | 38921 ft | 543 kts | 84° |
| 2026-05-05 18:42 | 40.29657 | -83.70409 | 38920 ft | 543 kts | 84° |
| 2026-05-05 18:42 | 40.29902 | -83.60550 | 38922 ft | 543 kts | 84° |
| 2026-05-05 18:43 | 40.30139 | -83.50670 | 38922 ft | 543 kts | 84° |
| 2026-05-05 18:43 | 40.30365 | -83.40882 | 38919 ft | 543 kts | 84° |
| 2026-05-05 18:44 | 40.30586 | -83.30965 | 38918 ft | 542 kts | 85° |
| 2026-05-05 18:44 | 40.30804 | -83.21110 | 38920 ft | 541 kts | 84° |
| 2026-05-05 18:45 | 40.31952 | -83.11504 | 38917 ft | 533 kts | 70° |
| 2026-05-05 18:45 | 40.33726 | -83.02061 | 38918 ft | 533 kts | 70° |
| 2026-05-05 18:46 | 40.35485 | -82.92625 | 38916 ft | 532 kts | 70° |
| 2026-05-05 18:46 | 40.37232 | -82.83202 | 38917 ft | 532 kts | 70° |
| 2026-05-05 18:47 | 40.38974 | -82.73766 | 38919 ft | 531 kts | 70° |
| 2026-05-05 18:47 | 40.40694 | -82.64406 | 38917 ft | 531 kts | 70° |
| 2026-05-05 18:48 | 40.42424 | -82.54941 | 38917 ft | 530 kts | 70° |
| 2026-05-05 18:48 | 40.44135 | -82.45541 | 38917 ft | 530 kts | 70° |
| 2026-05-05 18:49 | 40.45834 | -82.36159 | 38917 ft | 530 kts | 70° |
| 2026-05-05 18:49 | 40.47536 | -82.26717 | 38918 ft | 529 kts | 71° |
| 2026-05-05 18:50 | 40.49221 | -82.17321 | 38917 ft | 529 kts | 71° |
| 2026-05-05 18:50 | 40.50896 | -82.07934 | 38918 ft | 529 kts | 71° |
| 2026-05-05 18:51 | 40.52566 | -81.98524 | 38921 ft | 528 kts | 71° |
| 2026-05-05 18:51 | 40.54229 | -81.89111 | 38921 ft | 527 kts | 71° |
| 2026-05-05 18:52 | 40.55882 | -81.79706 | 38924 ft | 527 kts | 71° |
| 2026-05-05 18:52 | 40.57521 | -81.70337 | 38923 ft | 526 kts | 71° |
| 2026-05-05 18:53 | 40.59153 | -81.60957 | 38923 ft | 526 kts | 71° |
| 2026-05-05 18:53 | 40.60779 | -81.51565 | 38923 ft | 526 kts | 71° |
| 2026-05-05 18:54 | 40.62400 | -81.42148 | 38922 ft | 526 kts | 71° |
| 2026-05-05 18:54 | 40.64009 | -81.32758 | 38923 ft | 526 kts | 72° |
| 2026-05-05 18:55 | 40.65595 | -81.23449 | 38922 ft | 526 kts | 72° |
| 2026-05-05 18:55 | 40.67197 | -81.14002 | 38920 ft | 526 kts | 72° |
| 2026-05-05 18:56 | 40.68769 | -81.04672 | 38915 ft | 526 kts | 72° |
| 2026-05-05 18:56 | 40.70356 | -80.95209 | 38914 ft | 525 kts | 72° |
| 2026-05-05 18:57 | 40.71917 | -80.85851 | 38913 ft | 524 kts | 72° |
| 2026-05-05 18:57 | 40.73477 | -80.76450 | 38912 ft | 523 kts | 72° |
| 2026-05-05 18:58 | 40.75023 | -80.67079 | 38911 ft | 522 kts | 72° |
| 2026-05-05 18:58 | 40.76555 | -80.57750 | 38910 ft | 521 kts | 72° |
| 2026-05-05 18:59 | 40.78081 | -80.48401 | 38909 ft | 521 kts | 72° |
| 2026-05-05 18:59 | 40.79604 | -80.39030 | 38909 ft | 520 kts | 72° |
| 2026-05-05 19:00 | 40.81114 | -80.29678 | 38908 ft | 520 kts | 73° |
| 2026-05-05 19:00 | 40.82628 | -80.20401 | 38909 ft | 519 kts | 71° |
| 2026-05-05 19:01 | 40.84447 | -80.11167 | 38909 ft | 518 kts | 70° |
| 2026-05-05 19:01 | 40.86267 | -80.01956 | 38909 ft | 518 kts | 70° |
| 2026-05-05 19:02 | 40.88079 | -79.92744 | 38907 ft | 516 kts | 71° |
| 2026-05-05 19:02 | 40.89872 | -79.83575 | 38906 ft | 514 kts | 71° |
| 2026-05-05 19:03 | 40.91647 | -79.74458 | 38909 ft | 513 kts | 71° |
| 2026-05-05 19:03 | 40.93422 | -79.65295 | 38908 ft | 513 kts | 71° |
| 2026-05-05 19:04 | 40.95189 | -79.56134 | 38908 ft | 513 kts | 71° |
| 2026-05-05 19:04 | 40.96946 | -79.46982 | 38908 ft | 513 kts | 71° |
| 2026-05-05 19:05 | 40.98691 | -79.37843 | 38909 ft | 513 kts | 71° |
| 2026-05-05 19:05 | 41.00430 | -79.28696 | 38908 ft | 512 kts | 72° |
| 2026-05-05 19:06 | 41.02161 | -79.19542 | 38908 ft | 512 kts | 72° |
| 2026-05-05 19:06 | 41.03890 | -79.10361 | 38906 ft | 511 kts | 72° |
| 2026-05-05 19:07 | 41.05600 | -79.01238 | 38902 ft | 511 kts | 72° |
| 2026-05-05 19:07 | 41.07298 | -78.92133 | 38901 ft | 510 kts | 72° |
| 2026-05-05 19:08 | 41.08987 | -78.83028 | 38901 ft | 509 kts | 73° |
| 2026-05-05 19:08 | 41.10674 | -78.73899 | 38901 ft | 509 kts | 73° |
| 2026-05-05 19:09 | 41.12350 | -78.64780 | 38901 ft | 508 kts | 73° |
| 2026-05-05 19:09 | 41.14016 | -78.55670 | 38902 ft | 508 kts | 73° |
| 2026-05-05 19:10 | 41.15668 | -78.46600 | 38901 ft | 507 kts | 73° |
| 2026-05-05 19:10 | 41.17322 | -78.37476 | 38901 ft | 507 kts | 73° |
| 2026-05-05 19:11 | 41.18964 | -78.28372 | 38900 ft | 506 kts | 74° |
| 2026-05-05 19:11 | 41.20501 | -78.19244 | 38901 ft | 507 kts | 79° |
| 2026-05-05 19:12 | 41.20815 | -78.09943 | 38901 ft | 508 kts | 94° |
| 2026-05-05 19:12 | 41.19814 | -78.00650 | 38899 ft | 508 kts | 100° |
| 2026-05-05 19:13 | 41.18660 | -77.91399 | 38898 ft | 506 kts | 100° |
| 2026-05-05 19:13 | 41.17507 | -77.82210 | 38898 ft | 502 kts | 100° |
| 2026-05-05 19:14 | 41.16357 | -77.73102 | 38775 ft | 503 kts | 100° |
| 2026-05-05 19:14 | 41.15780 | -77.68553 | 38434 ft | 502 kts | 100° |
| 2026-05-05 19:14 | 41.15195 | -77.63959 | 37989 ft | 501 kts | 100° |
| 2026-05-05 19:15 | 41.14614 | -77.59412 | 37339 ft | 502 kts | 100° |
| 2026-05-05 19:15 | 41.14035 | -77.54891 | 36714 ft | 501 kts | 99° |
| 2026-05-05 19:15 | 41.13449 | -77.50329 | 36069 ft | 503 kts | 99° |
| 2026-05-05 19:15 | 41.12860 | -77.45763 | 35431 ft | 506 kts | 99° |
| 2026-05-05 19:16 | 41.12263 | -77.41146 | 34776 ft | 509 kts | 99° |
| 2026-05-05 19:16 | 41.11660 | -77.36508 | 34122 ft | 512 kts | 98° |
| 2026-05-05 19:16 | 41.11048 | -77.31802 | 33458 ft | 515 kts | 99° |
| 2026-05-05 19:16 | 41.10435 | -77.27113 | 32793 ft | 517 kts | 99° |
| 2026-05-05 19:17 | 41.09822 | -77.22436 | 32131 ft | 516 kts | 99° |
| 2026-05-05 19:17 | 41.09207 | -77.17756 | 31468 ft | 515 kts | 99° |
| 2026-05-05 19:17 | 41.08595 | -77.13121 | 30812 ft | 513 kts | 100° |
| 2026-05-05 19:17 | 41.07973 | -77.08423 | 30147 ft | 511 kts | 100° |
| 2026-05-05 19:18 | 41.07364 | -77.03835 | 29498 ft | 508 kts | 100° |
| 2026-05-05 19:18 | 41.06748 | -76.99209 | 28841 ft | 502 kts | 100° |
| 2026-05-05 19:18 | 41.06150 | -76.94727 | 28205 ft | 495 kts | 101° |
| 2026-05-05 19:18 | 41.05549 | -76.90245 | 27579 ft | 489 kts | 101° |
| 2026-05-05 19:19 | 41.04962 | -76.85873 | 26982 ft | 484 kts | 101° |
| 2026-05-05 19:19 | 41.04366 | -76.81453 | 26563 ft | 478 kts | 101° |
| 2026-05-05 19:19 | 41.03783 | -76.77140 | 26192 ft | 477 kts | 101° |
| 2026-05-05 19:19 | 41.03200 | -76.72848 | 25823 ft | 475 kts | 101° |
| 2026-05-05 19:20 | 41.02617 | -76.68564 | 25450 ft | 472 kts | 101° |
| 2026-05-05 19:20 | 41.01842 | -76.64327 | 24880 ft | 469 kts | 109° |
| 2026-05-05 19:20 | 41.00858 | -76.60229 | 24279 ft | 463 kts | 109° |
| 2026-05-05 19:20 | 40.99889 | -76.56200 | 23687 ft | 458 kts | 109° |
| 2026-05-05 19:21 | 40.98925 | -76.52191 | 23102 ft | 453 kts | 110° |
| 2026-05-05 19:21 | 40.97972 | -76.48235 | 22524 ft | 449 kts | 110° |
| 2026-05-05 19:21 | 40.97034 | -76.44348 | 21956 ft | 445 kts | 110° |
| 2026-05-05 19:21 | 40.96088 | -76.40440 | 21383 ft | 441 kts | 110° |
| 2026-05-05 19:22 | 40.95158 | -76.36595 | 20820 ft | 437 kts | 110° |
| 2026-05-05 19:22 | 40.94235 | -76.32790 | 20262 ft | 433 kts | 111° |
| 2026-05-05 19:22 | 40.93315 | -76.28997 | 19706 ft | 429 kts | 111° |
| 2026-05-05 19:22 | 40.92411 | -76.25279 | 19161 ft | 426 kts | 111° |
| 2026-05-05 19:23 | 40.91504 | -76.21551 | 18614 ft | 422 kts | 111° |
| 2026-05-05 19:23 | 40.90604 | -76.17861 | 18111 ft | 419 kts | 111° |
| 2026-05-05 19:23 | 40.89717 | -76.14229 | 17697 ft | 416 kts | 111° |
| 2026-05-05 19:23 | 40.88836 | -76.10627 | 17307 ft | 414 kts | 111° |
| 2026-05-05 19:24 | 40.87949 | -76.07005 | 16841 ft | 412 kts | 111° |
| 2026-05-05 19:24 | 40.87072 | -76.03432 | 16532 ft | 407 kts | 111° |
| 2026-05-05 19:24 | 40.86185 | -75.99824 | 16079 ft | 411 kts | 112° |
| 2026-05-05 19:24 | 40.85313 | -75.96278 | 15654 ft | 405 kts | 112° |
| 2026-05-05 19:25 | 40.84446 | -75.92761 | 15221 ft | 403 kts | 112° |
| 2026-05-05 19:25 | 40.83570 | -75.89210 | 14790 ft | 401 kts | 112° |
| 2026-05-05 19:25 | 40.82715 | -75.85751 | 14355 ft | 399 kts | 112° |
| 2026-05-05 19:25 | 40.81850 | -75.82256 | 13935 ft | 396 kts | 112° |
| 2026-05-05 19:26 | 40.81000 | -75.78821 | 13506 ft | 390 kts | 112° |
| 2026-05-05 19:26 | 40.80152 | -75.75410 | 13125 ft | 391 kts | 112° |
| 2026-05-05 19:26 | 40.79307 | -75.72010 | 13012 ft | 391 kts | 112° |
| 2026-05-05 19:26 | 40.78459 | -75.68609 | 13006 ft | 392 kts | 112° |
| 2026-05-05 19:27 | 40.77604 | -75.65180 | 13006 ft | 394 kts | 112° |
| 2026-05-05 19:27 | 40.76742 | -75.61729 | 13005 ft | 394 kts | 112° |
| 2026-05-05 19:27 | 40.75889 | -75.58321 | 13005 ft | 394 kts | 112° |
| 2026-05-05 19:27 | 40.75028 | -75.54884 | 13004 ft | 394 kts | 112° |
| 2026-05-05 19:28 | 40.74166 | -75.51444 | 13004 ft | 394 kts | 112° |
| 2026-05-05 19:28 | 40.73298 | -75.47987 | 12864 ft | 396 kts | 112° |
| 2026-05-05 19:28 | 40.72486 | -75.44533 | 12616 ft | 395 kts | 109° |
| 2026-05-05 19:28 | 40.71786 | -75.41025 | 12365 ft | 393 kts | 109° |
| 2026-05-05 19:29 | 40.71097 | -75.37548 | 12117 ft | 392 kts | 109° |
| 2026-05-05 19:29 | 40.70410 | -75.34102 | 11870 ft | 391 kts | 109° |
| 2026-05-05 19:29 | 40.69713 | -75.30600 | 11617 ft | 389 kts | 109° |
| 2026-05-05 19:29 | 40.69027 | -75.27161 | 11368 ft | 387 kts | 109° |
| 2026-05-05 19:30 | 40.68350 | -75.23777 | 11121 ft | 384 kts | 109° |
| 2026-05-05 19:30 | 40.67662 | -75.20343 | 10902 ft | 381 kts | 109° |
| 2026-05-05 19:30 | 40.66968 | -75.16991 | 10780 ft | 378 kts | 112° |
| 2026-05-05 19:30 | 40.65821 | -75.13952 | 10646 ft | 366 kts | 131° |
| 2026-05-05 19:31 | 40.64169 | -75.11444 | 10507 ft | 360 kts | 139° |
| 2026-05-05 19:31 | 40.62479 | -75.09052 | 10389 ft | 359 kts | 139° |
| 2026-05-05 19:31 | 40.60791 | -75.06651 | 10268 ft | 358 kts | 139° |
| 2026-05-05 19:31 | 40.59098 | -75.04246 | 10145 ft | 357 kts | 139° |
| 2026-05-05 19:32 | 40.57447 | -75.01807 | 10022 ft | 359 kts | 133° |
| 2026-05-05 19:32 | 40.56230 | -74.98893 | 9983 ft | 366 kts | 117° |
| 2026-05-05 19:32 | 40.55296 | -74.95746 | 9986 ft | 368 kts | 116° |
| 2026-05-05 19:32 | 40.54373 | -74.92642 | 9988 ft | 368 kts | 116° |
| 2026-05-05 19:33 | 40.53437 | -74.89507 | 9989 ft | 368 kts | 116° |
| 2026-05-05 19:33 | 40.52501 | -74.86375 | 9987 ft | 368 kts | 116° |
| 2026-05-05 19:33 | 40.51560 | -74.83231 | 9988 ft | 368 kts | 116° |
| 2026-05-05 19:33 | 40.50628 | -74.80121 | 9988 ft | 368 kts | 116° |
| 2026-05-05 19:34 | 40.49683 | -74.76972 | 9988 ft | 368 kts | 116° |
| 2026-05-05 19:34 | 40.48737 | -74.73822 | 9988 ft | 368 kts | 116° |
| 2026-05-05 19:34 | 40.47791 | -74.70679 | 9989 ft | 368 kts | 116° |
| 2026-05-05 19:35 | 40.45904 | -74.64419 | 9988 ft | 368 kts | 116° |
| 2026-05-05 19:35 | 40.44957 | -74.61282 | 9988 ft | 368 kts | 116° |
| 2026-05-05 19:35 | 40.44027 | -74.58177 | 9988 ft | 369 kts | 114° |
| 2026-05-05 19:35 | 40.43439 | -74.54851 | 9992 ft | 376 kts | 98° |
| 2026-05-05 19:36 | 40.43591 | -74.51411 | 9993 ft | 382 kts | 79° |
| 2026-05-05 19:36 | 40.44396 | -74.48060 | 9983 ft | 384 kts | 71° |
| 2026-05-05 19:36 | 40.45293 | -74.44769 | 9987 ft | 383 kts | 71° |
| 2026-05-05 19:36 | 40.46178 | -74.41486 | 9988 ft | 384 kts | 71° |
| 2026-05-05 19:37 | 40.47076 | -74.38148 | 9989 ft | 384 kts | 71° |
| 2026-05-05 19:37 | 40.47963 | -74.34849 | 9989 ft | 384 kts | 72° |
| 2026-05-05 19:37 | 40.48852 | -74.31537 | 9988 ft | 384 kts | 72° |
| 2026-05-05 19:37 | 40.49741 | -74.28221 | 9989 ft | 384 kts | 72° |
| 2026-05-05 19:38 | 40.50627 | -74.24910 | 9989 ft | 384 kts | 72° |
| 2026-05-05 19:38 | 40.51515 | -74.21591 | 9989 ft | 384 kts | 72° |
| 2026-05-05 19:38 | 40.52400 | -74.18276 | 9988 ft | 384 kts | 72° |
| 2026-05-05 19:38 | 40.53278 | -74.14984 | 9989 ft | 384 kts | 72° |
| 2026-05-05 19:39 | 40.54141 | -74.11747 | 10000 ft | 361 kts | 72° |
| 2026-05-05 19:39 | 40.54987 | -74.08747 | 10014 ft | 338 kts | 66° |
| 2026-05-05 19:39 | 40.56226 | -74.06232 | 10020 ft | 321 kts | 47° |
| 2026-05-05 19:39 | 40.57901 | -74.04294 | 10017 ft | 319 kts | 32° |
| 2026-05-05 19:40 | 40.59746 | -74.02713 | 10016 ft | 317 kts | 29° |
| 2026-05-05 19:40 | 40.61603 | -74.01141 | 10020 ft | 317 kts | 30° |
| 2026-05-05 19:40 | 40.63440 | -73.99582 | 10024 ft | 317 kts | 29° |
| 2026-05-05 19:40 | 40.65303 | -73.97997 | 10026 ft | 318 kts | 30° |
| 2026-05-05 19:41 | 40.67164 | -73.96413 | 9951 ft | 320 kts | 29° |
| 2026-05-05 19:41 | 40.69041 | -73.94820 | 9613 ft | 319 kts | 30° |
| 2026-05-05 19:41 | 40.70956 | -73.93403 | 9287 ft | 310 kts | 16° |
| 2026-05-05 19:41 | 40.73003 | -73.92590 | 8971 ft | 305 kts | 11° |
| 2026-05-05 19:42 | 40.75043 | -73.91869 | 8715 ft | 304 kts | 10° |
| 2026-05-05 19:42 | 40.77070 | -73.91157 | 8463 ft | 304 kts | 11° |
| 2026-05-05 19:42 | 40.79121 | -73.90443 | 8206 ft | 303 kts | 10° |
| 2026-05-05 19:42 | 40.81152 | -73.89738 | 7920 ft | 302 kts | 10° |
| 2026-05-05 19:43 | 40.83197 | -73.89029 | 7592 ft | 301 kts | 10° |
| 2026-05-05 19:43 | 40.85218 | -73.88332 | 7272 ft | 299 kts | 10° |
| 2026-05-05 19:43 | 40.87206 | -73.87651 | 6951 ft | 298 kts | 10° |
| 2026-05-05 19:43 | 40.89227 | -73.86961 | 6628 ft | 296 kts | 10° |
| 2026-05-05 19:44 | 40.91200 | -73.86286 | 6304 ft | 295 kts | 10° |
| 2026-05-05 19:44 | 40.93175 | -73.85542 | 5971 ft | 296 kts | 19° |
| 2026-05-05 19:44 | 40.94950 | -73.84206 | 5645 ft | 292 kts | 31° |
| 2026-05-05 19:44 | 40.96630 | -73.82755 | 5328 ft | 284 kts | 31° |
| 2026-05-05 19:45 | 40.98281 | -73.81329 | 5009 ft | 277 kts | 31° |
| 2026-05-05 19:45 | 40.99847 | -73.79934 | 4692 ft | 272 kts | 38° |
| 2026-05-05 19:45 | 41.00962 | -73.77975 | 4343 ft | 263 kts | 73° |
| 2026-05-05 19:45 | 41.01114 | -73.75681 | 4024 ft | 243 kts | 110° |
| 2026-05-05 19:46 | 41.00333 | -73.73860 | 3731 ft | 215 kts | 148° |
| 2026-05-05 19:46 | 40.99170 | -73.72936 | 3747 ft | 184 kts | 161° |
| 2026-05-05 19:46 | 40.98038 | -73.72208 | 3478 ft | 175 kts | 162° |
| 2026-05-05 19:46 | 40.96915 | -73.71858 | 3347 ft | 160 kts | 188° |
| 2026-05-05 19:47 | 40.95909 | -73.72293 | 3248 ft | 148 kts | 211° |
| 2026-05-05 19:47 | 40.95081 | -73.73070 | 3169 ft | 146 kts | 218° |
| 2026-05-05 19:47 | 40.94293 | -73.73902 | 3089 ft | 145 kts | 217° |
| 2026-05-05 19:47 | 40.93480 | -73.74689 | 3016 ft | 144 kts | 214° |
| 2026-05-05 19:48 | 40.92630 | -73.75424 | 2999 ft | 144 kts | 212° |
| 2026-05-05 19:48 | 40.91785 | -73.76114 | 3004 ft | 140 kts | 212° |
| 2026-05-05 19:48 | 40.91000 | -73.76747 | 2978 ft | 133 kts | 212° |
| 2026-05-05 19:48 | 40.90209 | -73.77393 | 2713 ft | 130 kts | 212° |
| 2026-05-05 19:49 | 40.89446 | -73.78024 | 2541 ft | 129 kts | 212° |
| 2026-05-05 19:49 | 40.88947 | -73.78438 | 2425 ft | 130 kts | 212° |
| 2026-05-05 19:49 | 40.87913 | -73.79300 | 2197 ft | 131 kts | 211° |
| 2026-05-05 19:49 | 40.87138 | -73.79946 | 2019 ft | 131 kts | 211° |
| 2026-05-05 19:50 | 40.86387 | -73.80570 | 1789 ft | 121 kts | 210° |
| 2026-05-05 19:50 | 40.85703 | -73.81139 | 1677 ft | 117 kts | 210° |
| 2026-05-05 19:50 | 40.85013 | -73.81712 | 1531 ft | 116 kts | 210° |
| 2026-05-05 19:50 | 40.84335 | -73.82272 | 1366 ft | 117 kts | 207° |
| 2026-05-05 19:51 | 40.83631 | -73.82850 | 1216 ft | 120 kts | 206° |
| 2026-05-05 19:51 | 40.82925 | -73.83432 | 1073 ft | 122 kts | 206° |
| 2026-05-05 19:51 | 40.82203 | -73.84026 | 915 ft | 123 kts | 206° |
| 2026-05-05 19:51 | 40.81489 | -73.84620 | 754 ft | 120 kts | 206° |
| 2026-05-05 19:52 | 40.80784 | -73.85207 | 590 ft | 123 kts | 206° |
| 2026-05-05 19:52 | 40.80059 | -73.85807 | 446 ft | 122 kts | 206° |
| 2026-05-05 19:52 | 40.79342 | -73.86402 | 275 ft | 122 kts | 207° |
| 2026-05-05 19:52 | 40.78636 | -73.87001 | 99 ft | 120 kts | 205° |
| 2026-05-05 19:53 | 40.77956 | -73.87556 | 29 ft | 102 kts | 208° |
| 2026-05-05 19:53 | 40.77538 | -73.87896 | 28 ft | 42 kts | 211° |
| 2026-05-05 19:53 | 40.77340 | -73.88062 | 28 ft | 17 kts | 213° |
| 2026-05-05 19:53 | 40.77287 | -73.88133 | 28 ft | 11 kts | 241° |
| 2026-05-05 19:54 | 40.77282 | -73.88193 | 28 ft | 7 kts | 273° |
| 2026-05-05 19:54 | 40.77274 | -73.88246 | 28 ft | 7 kts | 249° |
| 2026-05-05 19:54 | 40.77259 | -73.88290 | 28 ft | 5 kts | 216° |
| 2026-05-05 19:54 | 40.77216 | -73.88320 | 28 ft | 8 kts | 216° |
| 2026-05-05 19:55 | 40.77182 | -73.88351 | 28 ft | 5 kts | 211° |
| 2026-05-05 19:55 | 40.77175 | -73.88391 | 28 ft | 7 kts | 303° |
| 2026-05-05 19:55 | 40.77222 | -73.88422 | 28 ft | 6 kts | 355° |
| 2026-05-05 19:55 | 40.77241 | -73.88425 | 28 ft | 5 kts | 355° |
| 2026-05-05 19:56 | 40.77275 | -73.88448 | 28 ft | 7 kts | 300° |
| 2026-05-05 19:56 | 40.77285 | -73.88493 | 28 ft | 4 kts | 261° |
| 2026-05-05 19:56 | 40.77285 | -73.88499 | 28 ft | 0 kts | 260° |